sensor_id;sensor_type;location;lat;lon;timestamp;P1;durP1;ratioP1;P2;durP2;ratioP2
39426;SDS011;25938;48.470;1.486;2023-06-22T00:01:57;1.83;;;1.10;;
39426;SDS011;25938;48.470;1.486;2023-06-22T00:04:23;1.60;;;1.25;;
39426;SDS011;25938;48.470;1.486;2023-06-22T00:06:49;2.47;;;1.30;;
39426;SDS011;25938;48.470;1.486;2023-06-22T00:09:15;2.55;;;1.33;;
39426;SDS011;25938;48.470;1.486;2023-06-22T00:11:56;1.67;;;1.10;;
39426;SDS011;25938;48.470;1.486;2023-06-22T00:14:22;1.15;;;1.02;;
39426;SDS011;25938;48.470;1.486;2023-06-22T00:16:48;1.25;;;1.13;;
39426;SDS011;25938;48.470;1.486;2023-06-22T00:19:15;2.10;;;1.33;;
39426;SDS011;25938;48.470;1.486;2023-06-22T00:21:41;2.88;;;1.42;;
39426;SDS011;25938;48.470;1.486;2023-06-22T00:24:08;2.53;;;1.38;;
39426;SDS011;25938;48.470;1.486;2023-06-22T00:26:34;1.95;;;1.40;;
39426;SDS011;25938;48.470;1.486;2023-06-22T00:29:00;3.25;;;1.48;;
39426;SDS011;25938;48.470;1.486;2023-06-22T00:31:26;2.67;;;1.30;;
39426;SDS011;25938;48.470;1.486;2023-06-22T00:33:52;1.67;;;1.30;;
39426;SDS011;25938;48.470;1.486;2023-06-22T00:36:18;2.58;;;1.50;;
39426;SDS011;25938;48.470;1.486;2023-06-22T00:38:44;2.45;;;1.35;;
39426;SDS011;25938;48.470;1.486;2023-06-22T00:41:10;2.08;;;1.30;;
39426;SDS011;25938;48.470;1.486;2023-06-22T00:43:36;1.80;;;1.30;;
39426;SDS011;25938;48.470;1.486;2023-06-22T00:46:21;1.15;;;1.05;;
39426;SDS011;25938;48.470;1.486;2023-06-22T00:48:47;2.05;;;1.17;;
39426;SDS011;25938;48.470;1.486;2023-06-22T00:51:14;2.92;;;1.83;;
39426;SDS011;25938;48.470;1.486;2023-06-22T00:53:40;3.95;;;1.70;;
39426;SDS011;25938;48.470;1.486;2023-06-22T00:56:08;1.95;;;1.70;;
39426;SDS011;25938;48.470;1.486;2023-06-22T00:58:34;3.20;;;1.25;;
39426;SDS011;25938;48.470;1.486;2023-06-22T01:01:01;1.95;;;1.20;;
39426;SDS011;25938;48.470;1.486;2023-06-22T01:03:27;2.03;;;1.83;;
39426;SDS011;25938;48.470;1.486;2023-06-22T01:05:54;1.98;;;1.38;;
39426;SDS011;25938;48.470;1.486;2023-06-22T01:11:08;1.88;;;1.55;;
39426;SDS011;25938;48.470;1.486;2023-06-22T01:13:45;1.65;;;1.48;;
39426;SDS011;25938;48.470;1.486;2023-06-22T01:16:24;1.73;;;1.55;;
39426;SDS011;25938;48.470;1.486;2023-06-22T01:18:52;2.60;;;1.50;;
39426;SDS011;25938;48.470;1.486;2023-06-22T01:21:19;1.70;;;1.40;;
39426;SDS011;25938;48.470;1.486;2023-06-22T01:26:42;1.55;;;1.20;;
39426;SDS011;25938;48.470;1.486;2023-06-22T01:29:10;1.35;;;1.20;;
39426;SDS011;25938;48.470;1.486;2023-06-22T01:31:38;2.03;;;1.30;;
39426;SDS011;25938;48.470;1.486;2023-06-22T01:34:06;2.35;;;1.42;;
39426;SDS011;25938;48.470;1.486;2023-06-22T01:36:33;1.75;;;1.27;;
39426;SDS011;25938;48.470;1.486;2023-06-22T01:38:59;1.98;;;1.58;;
39426;SDS011;25938;48.470;1.486;2023-06-22T01:41:26;2.75;;;1.42;;
39426;SDS011;25938;48.470;1.486;2023-06-22T01:43:53;2.13;;;1.02;;
39426;SDS011;25938;48.470;1.486;2023-06-22T01:46:19;1.55;;;1.02;;
39426;SDS011;25938;48.470;1.486;2023-06-22T01:48:46;3.25;;;1.83;;
39426;SDS011;25938;48.470;1.486;2023-06-22T01:51:13;1.17;;;1.08;;
39426;SDS011;25938;48.470;1.486;2023-06-22T01:53:39;1.65;;;1.10;;
39426;SDS011;25938;48.470;1.486;2023-06-22T01:56:05;2.92;;;1.75;;
39426;SDS011;25938;48.470;1.486;2023-06-22T01:58:31;2.65;;;1.75;;
39426;SDS011;25938;48.470;1.486;2023-06-22T02:03:31;3.13;;;1.33;;
39426;SDS011;25938;48.470;1.486;2023-06-22T02:11:46;3.58;;;1.27;;
39426;SDS011;25938;48.470;1.486;2023-06-22T02:14:13;1.70;;;1.25;;
39426;SDS011;25938;48.470;1.486;2023-06-22T02:16:40;3.92;;;1.38;;
39426;SDS011;25938;48.470;1.486;2023-06-22T02:19:06;2.75;;;1.60;;
39426;SDS011;25938;48.470;1.486;2023-06-22T02:21:33;2.00;;;1.80;;
39426;SDS011;25938;48.470;1.486;2023-06-22T02:23:59;2.00;;;1.80;;
39426;SDS011;25938;48.470;1.486;2023-06-22T02:26:25;1.75;;;1.65;;
39426;SDS011;25938;48.470;1.486;2023-06-22T02:28:52;3.00;;;1.30;;
39426;SDS011;25938;48.470;1.486;2023-06-22T02:31:19;1.60;;;1.27;;
39426;SDS011;25938;48.470;1.486;2023-06-22T02:33:45;1.65;;;1.33;;
39426;SDS011;25938;48.470;1.486;2023-06-22T02:36:13;1.42;;;1.33;;
39426;SDS011;25938;48.470;1.486;2023-06-22T02:38:42;3.25;;;1.50;;
39426;SDS011;25938;48.470;1.486;2023-06-22T02:41:13;3.55;;;1.42;;
39426;SDS011;25938;48.470;1.486;2023-06-22T02:43:42;1.63;;;1.40;;
39426;SDS011;25938;48.470;1.486;2023-06-22T02:46:08;2.72;;;1.13;;
39426;SDS011;25938;48.470;1.486;2023-06-22T02:48:34;1.83;;;1.65;;
39426;SDS011;25938;48.470;1.486;2023-06-22T02:51:00;2.95;;;1.75;;
39426;SDS011;25938;48.470;1.486;2023-06-22T02:53:26;4.85;;;1.67;;
39426;SDS011;25938;48.470;1.486;2023-06-22T02:56:11;3.40;;;1.50;;
39426;SDS011;25938;48.470;1.486;2023-06-22T02:58:37;1.98;;;1.52;;
39426;SDS011;25938;48.470;1.486;2023-06-22T03:01:07;2.25;;;1.63;;
39426;SDS011;25938;48.470;1.486;2023-06-22T03:03:33;2.05;;;1.42;;
39426;SDS011;25938;48.470;1.486;2023-06-22T03:05:59;2.22;;;1.60;;
39426;SDS011;25938;48.470;1.486;2023-06-22T03:08:25;2.90;;;1.35;;
39426;SDS011;25938;48.470;1.486;2023-06-22T03:10:51;5.25;;;2.78;;
39426;SDS011;25938;48.470;1.486;2023-06-22T03:13:17;3.08;;;2.03;;
39426;SDS011;25938;48.470;1.486;2023-06-22T03:15:43;1.70;;;1.35;;
39426;SDS011;25938;48.470;1.486;2023-06-22T03:18:10;2.75;;;1.33;;
39426;SDS011;25938;48.470;1.486;2023-06-22T03:20:36;3.33;;;1.40;;
39426;SDS011;25938;48.470;1.486;2023-06-22T03:23:03;5.13;;;3.58;;
39426;SDS011;25938;48.470;1.486;2023-06-22T03:25:29;1.80;;;1.67;;
39426;SDS011;25938;48.470;1.486;2023-06-22T03:27:55;3.35;;;1.58;;
39426;SDS011;25938;48.470;1.486;2023-06-22T03:30:21;2.10;;;1.52;;
39426;SDS011;25938;48.470;1.486;2023-06-22T03:32:47;2.85;;;1.83;;
39426;SDS011;25938;48.470;1.486;2023-06-22T03:35:13;2.13;;;1.55;;
39426;SDS011;25938;48.470;1.486;2023-06-22T03:37:39;1.17;;;1.00;;
39426;SDS011;25938;48.470;1.486;2023-06-22T03:40:05;3.40;;;1.55;;
39426;SDS011;25938;48.470;1.486;2023-06-22T03:42:33;1.60;;;1.13;;
39426;SDS011;25938;48.470;1.486;2023-06-22T03:45:01;3.90;;;2.60;;
39426;SDS011;25938;48.470;1.486;2023-06-22T03:47:28;1.55;;;1.13;;
39426;SDS011;25938;48.470;1.486;2023-06-22T03:49:54;2.17;;;1.50;;
39426;SDS011;25938;48.470;1.486;2023-06-22T03:52:21;1.23;;;1.02;;
39426;SDS011;25938;48.470;1.486;2023-06-22T03:54:47;2.05;;;1.15;;
39426;SDS011;25938;48.470;1.486;2023-06-22T03:57:13;4.32;;;3.92;;
39426;SDS011;25938;48.470;1.486;2023-06-22T03:59:39;1.52;;;1.42;;
39426;SDS011;25938;48.470;1.486;2023-06-22T04:02:05;2.30;;;1.98;;
39426;SDS011;25938;48.470;1.486;2023-06-22T04:04:31;1.40;;;1.30;;
39426;SDS011;25938;48.470;1.486;2023-06-22T04:06:58;2.58;;;1.48;;
39426;SDS011;25938;48.470;1.486;2023-06-22T04:09:24;2.42;;;1.42;;
39426;SDS011;25938;48.470;1.486;2023-06-22T04:11:50;3.20;;;1.55;;
39426;SDS011;25938;48.470;1.486;2023-06-22T04:14:17;1.80;;;1.50;;
39426;SDS011;25938;48.470;1.486;2023-06-22T04:16:43;2.20;;;1.55;;
39426;SDS011;25938;48.470;1.486;2023-06-22T04:19:09;3.28;;;1.55;;
39426;SDS011;25938;48.470;1.486;2023-06-22T04:21:41;4.78;;;2.28;;
39426;SDS011;25938;48.470;1.486;2023-06-22T04:24:07;1.52;;;1.20;;
39426;SDS011;25938;48.470;1.486;2023-06-22T04:26:33;3.55;;;1.42;;
39426;SDS011;25938;48.470;1.486;2023-06-22T04:29:01;1.70;;;1.55;;
39426;SDS011;25938;48.470;1.486;2023-06-22T04:31:30;3.65;;;1.90;;
39426;SDS011;25938;48.470;1.486;2023-06-22T04:33:57;2.78;;;1.73;;
39426;SDS011;25938;48.470;1.486;2023-06-22T04:36:30;2.92;;;1.75;;
39426;SDS011;25938;48.470;1.486;2023-06-22T04:39:02;3.90;;;2.23;;
39426;SDS011;25938;48.470;1.486;2023-06-22T04:41:28;2.35;;;1.80;;
39426;SDS011;25938;48.470;1.486;2023-06-22T04:43:54;2.13;;;1.70;;
39426;SDS011;25938;48.470;1.486;2023-06-22T04:46:24;2.60;;;1.77;;
39426;SDS011;25938;48.470;1.486;2023-06-22T04:48:50;3.33;;;1.70;;
39426;SDS011;25938;48.470;1.486;2023-06-22T04:51:16;3.03;;;2.22;;
39426;SDS011;25938;48.470;1.486;2023-06-22T04:53:46;3.42;;;2.38;;
39426;SDS011;25938;48.470;1.486;2023-06-22T04:56:12;3.15;;;2.33;;
39426;SDS011;25938;48.470;1.486;2023-06-22T04:58:40;3.85;;;2.17;;
39426;SDS011;25938;48.470;1.486;2023-06-22T05:01:06;2.65;;;1.90;;
39426;SDS011;25938;48.470;1.486;2023-06-22T05:03:33;3.50;;;2.13;;
39426;SDS011;25938;48.470;1.486;2023-06-22T05:06:01;6.00;;;2.50;;
39426;SDS011;25938;48.470;1.486;2023-06-22T05:08:27;5.03;;;3.08;;
39426;SDS011;25938;48.470;1.486;2023-06-22T05:10:53;5.95;;;2.60;;
39426;SDS011;25938;48.470;1.486;2023-06-22T05:13:19;5.50;;;2.72;;
39426;SDS011;25938;48.470;1.486;2023-06-22T05:15:46;3.72;;;2.15;;
39426;SDS011;25938;48.470;1.486;2023-06-22T05:18:12;4.85;;;3.10;;
39426;SDS011;25938;48.470;1.486;2023-06-22T05:20:38;5.68;;;3.67;;
39426;SDS011;25938;48.470;1.486;2023-06-22T05:23:04;4.72;;;2.80;;
39426;SDS011;25938;48.470;1.486;2023-06-22T05:25:30;4.30;;;2.42;;
39426;SDS011;25938;48.470;1.486;2023-06-22T05:27:57;4.03;;;2.35;;
39426;SDS011;25938;48.470;1.486;2023-06-22T05:30:23;3.85;;;2.58;;
39426;SDS011;25938;48.470;1.486;2023-06-22T05:32:49;7.63;;;3.05;;
39426;SDS011;25938;48.470;1.486;2023-06-22T05:35:17;9.52;;;3.13;;
39426;SDS011;25938;48.470;1.486;2023-06-22T05:37:43;6.65;;;3.50;;
39426;SDS011;25938;48.470;1.486;2023-06-22T05:40:09;8.13;;;3.95;;
39426;SDS011;25938;48.470;1.486;2023-06-22T05:42:37;4.85;;;2.88;;
39426;SDS011;25938;48.470;1.486;2023-06-22T05:45:03;5.20;;;3.47;;
39426;SDS011;25938;48.470;1.486;2023-06-22T05:47:29;5.80;;;3.65;;
39426;SDS011;25938;48.470;1.486;2023-06-22T05:49:55;7.53;;;3.78;;
39426;SDS011;25938;48.470;1.486;2023-06-22T05:52:21;10.98;;;4.60;;
39426;SDS011;25938;48.470;1.486;2023-06-22T05:54:47;7.20;;;3.78;;
39426;SDS011;25938;48.470;1.486;2023-06-22T05:57:13;5.03;;;3.30;;
39426;SDS011;25938;48.470;1.486;2023-06-22T05:59:39;3.88;;;3.42;;
39426;SDS011;25938;48.470;1.486;2023-06-22T06:02:05;6.65;;;3.75;;
39426;SDS011;25938;48.470;1.486;2023-06-22T06:04:31;8.07;;;4.22;;
39426;SDS011;25938;48.470;1.486;2023-06-22T06:06:57;4.32;;;2.88;;
39426;SDS011;25938;48.470;1.486;2023-06-22T06:09:23;8.52;;;4.97;;
39426;SDS011;25938;48.470;1.486;2023-06-22T06:11:49;6.90;;;4.15;;
39426;SDS011;25938;48.470;1.486;2023-06-22T06:14:15;4.22;;;3.30;;
39426;SDS011;25938;48.470;1.486;2023-06-22T06:16:42;6.32;;;3.47;;
39426;SDS011;25938;48.470;1.486;2023-06-22T06:19:08;5.63;;;2.95;;
39426;SDS011;25938;48.470;1.486;2023-06-22T06:21:34;7.03;;;4.43;;
39426;SDS011;25938;48.470;1.486;2023-06-22T06:24:00;6.28;;;3.47;;
39426;SDS011;25938;48.470;1.486;2023-06-22T06:26:26;6.45;;;3.70;;
39426;SDS011;25938;48.470;1.486;2023-06-22T06:28:57;7.15;;;4.03;;
39426;SDS011;25938;48.470;1.486;2023-06-22T06:31:23;6.05;;;3.58;;
39426;SDS011;25938;48.470;1.486;2023-06-22T06:33:52;5.82;;;3.13;;
39426;SDS011;25938;48.470;1.486;2023-06-22T06:36:19;6.70;;;3.78;;
39426;SDS011;25938;48.470;1.486;2023-06-22T06:38:45;4.07;;;2.92;;
39426;SDS011;25938;48.470;1.486;2023-06-22T06:41:13;8.30;;;5.55;;
39426;SDS011;25938;48.470;1.486;2023-06-22T06:43:39;6.75;;;3.47;;
39426;SDS011;25938;48.470;1.486;2023-06-22T06:46:06;5.20;;;3.35;;
39426;SDS011;25938;48.470;1.486;2023-06-22T06:48:32;6.88;;;3.15;;
39426;SDS011;25938;48.470;1.486;2023-06-22T06:50:58;5.30;;;4.13;;
39426;SDS011;25938;48.470;1.486;2023-06-22T06:53:24;6.53;;;3.90;;
39426;SDS011;25938;48.470;1.486;2023-06-22T06:55:51;5.65;;;3.78;;
39426;SDS011;25938;48.470;1.486;2023-06-22T06:58:17;7.10;;;4.45;;
39426;SDS011;25938;48.470;1.486;2023-06-22T07:00:44;4.55;;;4.03;;
39426;SDS011;25938;48.470;1.486;2023-06-22T07:03:10;5.93;;;4.15;;
39426;SDS011;25938;48.470;1.486;2023-06-22T07:05:39;5.68;;;3.65;;
39426;SDS011;25938;48.470;1.486;2023-06-22T07:08:05;6.70;;;3.92;;
39426;SDS011;25938;48.470;1.486;2023-06-22T07:10:31;4.72;;;3.83;;
39426;SDS011;25938;48.470;1.486;2023-06-22T07:12:57;5.72;;;3.40;;
39426;SDS011;25938;48.470;1.486;2023-06-22T07:15:23;5.47;;;4.43;;
39426;SDS011;25938;48.470;1.486;2023-06-22T07:17:50;7.60;;;4.70;;
39426;SDS011;25938;48.470;1.486;2023-06-22T07:20:16;5.05;;;3.65;;
39426;SDS011;25938;48.470;1.486;2023-06-22T07:22:43;4.28;;;3.72;;
39426;SDS011;25938;48.470;1.486;2023-06-22T07:25:12;5.55;;;3.75;;
39426;SDS011;25938;48.470;1.486;2023-06-22T07:28:24;8.88;;;3.78;;
39426;SDS011;25938;48.470;1.486;2023-06-22T07:30:31;6.90;;;3.75;;
39426;SDS011;25938;48.470;1.486;2023-06-22T07:32:58;4.68;;;3.92;;
39426;SDS011;25938;48.470;1.486;2023-06-22T07:35:28;6.20;;;4.35;;
39426;SDS011;25938;48.470;1.486;2023-06-22T07:37:55;5.15;;;4.15;;
39426;SDS011;25938;48.470;1.486;2023-06-22T07:40:21;6.75;;;4.43;;
39426;SDS011;25938;48.470;1.486;2023-06-22T07:42:47;7.20;;;4.97;;
39426;SDS011;25938;48.470;1.486;2023-06-22T07:45:13;3.53;;;2.42;;
39426;SDS011;25938;48.470;1.486;2023-06-22T07:47:39;2.40;;;1.98;;
39426;SDS011;25938;48.470;1.486;2023-06-22T07:50:05;4.07;;;3.38;;
39426;SDS011;25938;48.470;1.486;2023-06-22T07:52:31;6.35;;;5.10;;
39426;SDS011;25938;48.470;1.486;2023-06-22T07:54:58;3.90;;;2.40;;
39426;SDS011;25938;48.470;1.486;2023-06-22T07:57:24;3.92;;;2.53;;
39426;SDS011;25938;48.470;1.486;2023-06-22T07:59:58;7.07;;;5.57;;
39426;SDS011;25938;48.470;1.486;2023-06-22T08:02:24;4.25;;;2.95;;
39426;SDS011;25938;48.470;1.486;2023-06-22T08:04:50;5.78;;;4.45;;
39426;SDS011;25938;48.470;1.486;2023-06-22T08:07:16;7.68;;;5.47;;
39426;SDS011;25938;48.470;1.486;2023-06-22T08:09:48;7.35;;;5.40;;
39426;SDS011;25938;48.470;1.486;2023-06-22T08:12:14;5.32;;;3.55;;
39426;SDS011;25938;48.470;1.486;2023-06-22T08:14:41;8.93;;;5.20;;
39426;SDS011;25938;48.470;1.486;2023-06-22T08:17:09;6.25;;;4.45;;
39426;SDS011;25938;48.470;1.486;2023-06-22T08:19:36;4.70;;;2.78;;
39426;SDS011;25938;48.470;1.486;2023-06-22T08:22:02;7.88;;;5.40;;
39426;SDS011;25938;48.470;1.486;2023-06-22T08:24:28;7.60;;;4.72;;
39426;SDS011;25938;48.470;1.486;2023-06-22T08:26:55;7.20;;;5.15;;
39426;SDS011;25938;48.470;1.486;2023-06-22T08:29:21;3.58;;;3.13;;
39426;SDS011;25938;48.470;1.486;2023-06-22T08:31:47;2.88;;;2.33;;
39426;SDS011;25938;48.470;1.486;2023-06-22T08:34:13;4.97;;;3.95;;
39426;SDS011;25938;48.470;1.486;2023-06-22T08:36:39;6.57;;;5.65;;
39426;SDS011;25938;48.470;1.486;2023-06-22T08:39:08;5.57;;;3.38;;
39426;SDS011;25938;48.470;1.486;2023-06-22T08:41:34;7.40;;;4.82;;
39426;SDS011;25938;48.470;1.486;2023-06-22T08:44:00;7.50;;;4.93;;
39426;SDS011;25938;48.470;1.486;2023-06-22T08:46:26;7.25;;;4.82;;
39426;SDS011;25938;48.470;1.486;2023-06-22T08:48:55;4.72;;;2.70;;
39426;SDS011;25938;48.470;1.486;2023-06-22T08:51:22;7.03;;;5.18;;
39426;SDS011;25938;48.470;1.486;2023-06-22T08:53:48;5.60;;;4.22;;
39426;SDS011;25938;48.470;1.486;2023-06-22T08:56:14;3.00;;;2.65;;
39426;SDS011;25938;48.470;1.486;2023-06-22T08:58:40;9.88;;;6.57;;
39426;SDS011;25938;48.470;1.486;2023-06-22T09:01:06;4.70;;;3.92;;
39426;SDS011;25938;48.470;1.486;2023-06-22T09:03:32;4.43;;;2.92;;
39426;SDS011;25938;48.470;1.486;2023-06-22T09:08:34;6.78;;;4.43;;
39426;SDS011;25938;48.470;1.486;2023-06-22T09:11:00;6.25;;;3.60;;
39426;SDS011;25938;48.470;1.486;2023-06-22T09:13:28;3.10;;;2.67;;
39426;SDS011;25938;48.470;1.486;2023-06-22T09:15:54;7.63;;;6.05;;
39426;SDS011;25938;48.470;1.486;2023-06-22T09:18:20;8.80;;;6.68;;
39426;SDS011;25938;48.470;1.486;2023-06-22T09:20:46;3.22;;;2.10;;
39426;SDS011;25938;48.470;1.486;2023-06-22T09:23:12;18.45;;;6.28;;
39426;SDS011;25938;48.470;1.486;2023-06-22T09:25:38;11.75;;;4.55;;
39426;SDS011;25938;48.470;1.486;2023-06-22T09:28:05;4.00;;;2.90;;
39426;SDS011;25938;48.470;1.486;2023-06-22T09:30:31;7.88;;;4.70;;
39426;SDS011;25938;48.470;1.486;2023-06-22T09:32:57;5.88;;;3.15;;
39426;SDS011;25938;48.470;1.486;2023-06-22T09:35:23;10.80;;;7.78;;
39426;SDS011;25938;48.470;1.486;2023-06-22T09:37:49;12.43;;;7.10;;
39426;SDS011;25938;48.470;1.486;2023-06-22T09:40:15;8.30;;;4.78;;
39426;SDS011;25938;48.470;1.486;2023-06-22T09:42:41;10.52;;;3.17;;
39426;SDS011;25938;48.470;1.486;2023-06-22T09:45:08;12.40;;;7.68;;
39426;SDS011;25938;48.470;1.486;2023-06-22T09:47:34;7.88;;;6.20;;
39426;SDS011;25938;48.470;1.486;2023-06-22T09:50:00;11.57;;;6.93;;
39426;SDS011;25938;48.470;1.486;2023-06-22T09:52:26;11.77;;;7.53;;
39426;SDS011;25938;48.470;1.486;2023-06-22T09:54:52;11.23;;;8.25;;
39426;SDS011;25938;48.470;1.486;2023-06-22T09:57:18;6.10;;;3.05;;
39426;SDS011;25938;48.470;1.486;2023-06-22T09:59:44;11.90;;;7.97;;
39426;SDS011;25938;48.470;1.486;2023-06-22T10:02:10;5.47;;;3.55;;
39426;SDS011;25938;48.470;1.486;2023-06-22T10:04:36;12.57;;;8.93;;
39426;SDS011;25938;48.470;1.486;2023-06-22T10:07:02;9.93;;;5.50;;
39426;SDS011;25938;48.470;1.486;2023-06-22T10:09:28;13.18;;;9.35;;
39426;SDS011;25938;48.470;1.486;2023-06-22T10:11:54;15.32;;;9.15;;
39426;SDS011;25938;48.470;1.486;2023-06-22T10:14:20;11.30;;;7.90;;
39426;SDS011;25938;48.470;1.486;2023-06-22T10:16:48;4.68;;;3.22;;
39426;SDS011;25938;48.470;1.486;2023-06-22T10:19:14;7.03;;;4.20;;
39426;SDS011;25938;48.470;1.486;2023-06-22T10:21:40;10.15;;;7.55;;
39426;SDS011;25938;48.470;1.486;2023-06-22T10:24:06;4.97;;;3.10;;
39426;SDS011;25938;48.470;1.486;2023-06-22T10:26:32;6.90;;;4.63;;
39426;SDS011;25938;48.470;1.486;2023-06-22T10:28:59;5.85;;;3.75;;
39426;SDS011;25938;48.470;1.486;2023-06-22T10:31:25;9.00;;;5.63;;
39426;SDS011;25938;48.470;1.486;2023-06-22T10:33:52;8.02;;;6.30;;
39426;SDS011;25938;48.470;1.486;2023-06-22T10:36:18;12.60;;;7.45;;
39426;SDS011;25938;48.470;1.486;2023-06-22T10:38:44;11.23;;;7.47;;
39426;SDS011;25938;48.470;1.486;2023-06-22T10:41:12;6.65;;;3.67;;
39426;SDS011;25938;48.470;1.486;2023-06-22T10:43:38;8.90;;;6.50;;
39426;SDS011;25938;48.470;1.486;2023-06-22T10:46:04;13.65;;;6.85;;
39426;SDS011;25938;48.470;1.486;2023-06-22T10:48:30;7.25;;;5.07;;
39426;SDS011;25938;48.470;1.486;2023-06-22T10:50:56;5.47;;;2.17;;
39426;SDS011;25938;48.470;1.486;2023-06-22T10:53:22;9.88;;;5.60;;
39426;SDS011;25938;48.470;1.486;2023-06-22T10:55:48;10.05;;;7.60;;
39426;SDS011;25938;48.470;1.486;2023-06-22T10:58:14;12.65;;;5.78;;
39426;SDS011;25938;48.470;1.486;2023-06-22T11:00:40;12.35;;;7.15;;
39426;SDS011;25938;48.470;1.486;2023-06-22T11:03:06;14.65;;;6.85;;
39426;SDS011;25938;48.470;1.486;2023-06-22T11:08:51;9.10;;;7.15;;
39426;SDS011;25938;48.470;1.486;2023-06-22T11:11:17;8.95;;;6.10;;
39426;SDS011;25938;48.470;1.486;2023-06-22T11:13:43;7.65;;;4.22;;
39426;SDS011;25938;48.470;1.486;2023-06-22T11:16:09;9.20;;;4.35;;
39426;SDS011;25938;48.470;1.486;2023-06-22T11:18:35;9.73;;;5.40;;
39426;SDS011;25938;48.470;1.486;2023-06-22T11:21:01;9.27;;;6.75;;
39426;SDS011;25938;48.470;1.486;2023-06-22T11:23:27;7.65;;;3.38;;
39426;SDS011;25938;48.470;1.486;2023-06-22T11:25:54;7.25;;;3.90;;
39426;SDS011;25938;48.470;1.486;2023-06-22T11:28:20;6.47;;;4.85;;
39426;SDS011;25938;48.470;1.486;2023-06-22T11:30:46;6.30;;;3.42;;
39426;SDS011;25938;48.470;1.486;2023-06-22T11:33:12;5.20;;;2.95;;
39426;SDS011;25938;48.470;1.486;2023-06-22T11:35:38;8.43;;;3.80;;
39426;SDS011;25938;48.470;1.486;2023-06-22T11:38:04;5.63;;;4.72;;
39426;SDS011;25938;48.470;1.486;2023-06-22T11:40:30;9.27;;;5.47;;
39426;SDS011;25938;48.470;1.486;2023-06-22T11:42:56;4.00;;;2.75;;
39426;SDS011;25938;48.470;1.486;2023-06-22T11:45:22;5.88;;;5.15;;
39426;SDS011;25938;48.470;1.486;2023-06-22T11:47:48;4.20;;;2.92;;
39426;SDS011;25938;48.470;1.486;2023-06-22T11:50:14;7.93;;;5.03;;
39426;SDS011;25938;48.470;1.486;2023-06-22T11:52:40;9.05;;;6.15;;
39426;SDS011;25938;48.470;1.486;2023-06-22T11:55:06;5.35;;;3.78;;
39426;SDS011;25938;48.470;1.486;2023-06-22T11:57:33;7.45;;;5.22;;
39426;SDS011;25938;48.470;1.486;2023-06-22T12:00:00;6.22;;;3.50;;
39426;SDS011;25938;48.470;1.486;2023-06-22T12:02:25;6.78;;;4.63;;
39426;SDS011;25938;48.470;1.486;2023-06-22T12:04:51;7.95;;;5.13;;
39426;SDS011;25938;48.470;1.486;2023-06-22T12:07:19;9.65;;;4.72;;
39426;SDS011;25938;48.470;1.486;2023-06-22T12:09:45;8.95;;;4.93;;
39426;SDS011;25938;48.470;1.486;2023-06-22T12:12:11;7.28;;;3.88;;
39426;SDS011;25938;48.470;1.486;2023-06-22T12:14:37;6.60;;;4.45;;
39426;SDS011;25938;48.470;1.486;2023-06-22T12:17:03;6.85;;;4.00;;
39426;SDS011;25938;48.470;1.486;2023-06-22T12:19:29;12.77;;;4.47;;
39426;SDS011;25938;48.470;1.486;2023-06-22T12:21:55;5.70;;;4.18;;
39426;SDS011;25938;48.470;1.486;2023-06-22T12:24:21;7.72;;;3.53;;
39426;SDS011;25938;48.470;1.486;2023-06-22T12:26:47;6.55;;;4.05;;
39426;SDS011;25938;48.470;1.486;2023-06-22T12:29:13;4.55;;;3.40;;
39426;SDS011;25938;48.470;1.486;2023-06-22T12:31:39;5.03;;;3.75;;
39426;SDS011;25938;48.470;1.486;2023-06-22T12:34:06;5.20;;;3.45;;
39426;SDS011;25938;48.470;1.486;2023-06-22T12:36:32;4.07;;;3.00;;
39426;SDS011;25938;48.470;1.486;2023-06-22T12:38:58;3.50;;;2.40;;
39426;SDS011;25938;48.470;1.486;2023-06-22T12:41:24;3.40;;;2.45;;
39426;SDS011;25938;48.470;1.486;2023-06-22T12:43:50;4.43;;;3.05;;
39426;SDS011;25938;48.470;1.486;2023-06-22T12:46:16;6.50;;;2.60;;
39426;SDS011;25938;48.470;1.486;2023-06-22T12:48:42;7.32;;;3.45;;
39426;SDS011;25938;48.470;1.486;2023-06-22T12:51:09;3.20;;;2.08;;
39426;SDS011;25938;48.470;1.486;2023-06-22T12:53:35;2.50;;;2.25;;
39426;SDS011;25938;48.470;1.486;2023-06-22T12:56:01;4.32;;;2.63;;
39426;SDS011;25938;48.470;1.486;2023-06-22T12:58:27;4.03;;;3.03;;
39426;SDS011;25938;48.470;1.486;2023-06-22T13:00:53;4.47;;;2.85;;
39426;SDS011;25938;48.470;1.486;2023-06-22T13:03:19;6.82;;;2.95;;
39426;SDS011;25938;48.470;1.486;2023-06-22T13:05:45;11.50;;;3.72;;
39426;SDS011;25938;48.470;1.486;2023-06-22T13:08:11;4.30;;;3.13;;
39426;SDS011;25938;48.470;1.486;2023-06-22T13:10:37;4.70;;;2.60;;
39426;SDS011;25938;48.470;1.486;2023-06-22T13:13:03;6.97;;;3.10;;
39426;SDS011;25938;48.470;1.486;2023-06-22T13:15:29;6.57;;;2.85;;
39426;SDS011;25938;48.470;1.486;2023-06-22T13:17:55;5.53;;;2.53;;
39426;SDS011;25938;48.470;1.486;2023-06-22T13:20:21;6.47;;;3.08;;
39426;SDS011;25938;48.470;1.486;2023-06-22T13:22:47;3.95;;;3.08;;
39426;SDS011;25938;48.470;1.486;2023-06-22T13:25:13;4.70;;;3.13;;
39426;SDS011;25938;48.470;1.486;2023-06-22T13:27:44;3.78;;;2.63;;
39426;SDS011;25938;48.470;1.486;2023-06-22T13:30:10;5.82;;;2.22;;
39426;SDS011;25938;48.470;1.486;2023-06-22T13:32:36;4.95;;;2.60;;
39426;SDS011;25938;48.470;1.486;2023-06-22T13:35:02;3.83;;;2.72;;
39426;SDS011;25938;48.470;1.486;2023-06-22T13:37:28;4.90;;;2.15;;
39426;SDS011;25938;48.470;1.486;2023-06-22T13:39:54;2.90;;;2.30;;
39426;SDS011;25938;48.470;1.486;2023-06-22T13:42:21;5.43;;;2.22;;
39426;SDS011;25938;48.470;1.486;2023-06-22T13:44:47;3.78;;;2.63;;
39426;SDS011;25938;48.470;1.486;2023-06-22T13:47:13;2.72;;;1.90;;
39426;SDS011;25938;48.470;1.486;2023-06-22T13:49:39;5.35;;;2.60;;
39426;SDS011;25938;48.470;1.486;2023-06-22T13:52:05;3.45;;;2.53;;
39426;SDS011;25938;48.470;1.486;2023-06-22T13:54:35;5.07;;;2.05;;
39426;SDS011;25938;48.470;1.486;2023-06-22T13:57:01;4.38;;;2.47;;
39426;SDS011;25938;48.470;1.486;2023-06-22T13:59:27;3.75;;;2.40;;
39426;SDS011;25938;48.470;1.486;2023-06-22T14:01:53;3.88;;;2.53;;
39426;SDS011;25938;48.470;1.486;2023-06-22T14:04:21;4.45;;;2.20;;
39426;SDS011;25938;48.470;1.486;2023-06-22T14:06:47;5.20;;;2.45;;
39426;SDS011;25938;48.470;1.486;2023-06-22T14:09:13;2.38;;;1.83;;
39426;SDS011;25938;48.470;1.486;2023-06-22T14:11:39;4.63;;;2.03;;
39426;SDS011;25938;48.470;1.486;2023-06-22T14:14:05;2.65;;;1.60;;
39426;SDS011;25938;48.470;1.486;2023-06-22T14:16:31;3.38;;;2.38;;
39426;SDS011;25938;48.470;1.486;2023-06-22T14:18:57;8.05;;;2.67;;
39426;SDS011;25938;48.470;1.486;2023-06-22T14:21:23;2.88;;;2.03;;
39426;SDS011;25938;48.470;1.486;2023-06-22T14:23:49;2.75;;;2.17;;
39426;SDS011;25938;48.470;1.486;2023-06-22T14:26:15;14.40;;;4.45;;
39426;SDS011;25938;48.470;1.486;2023-06-22T14:28:45;2.67;;;1.58;;
39426;SDS011;25938;48.470;1.486;2023-06-22T14:31:18;10.82;;;3.97;;
39426;SDS011;25938;48.470;1.486;2023-06-22T14:33:48;7.40;;;3.17;;
39426;SDS011;25938;48.470;1.486;2023-06-22T14:36:14;2.13;;;1.77;;
39426;SDS011;25938;48.470;1.486;2023-06-22T14:38:41;5.20;;;1.73;;
39426;SDS011;25938;48.470;1.486;2023-06-22T14:41:07;7.18;;;2.80;;
39426;SDS011;25938;48.470;1.486;2023-06-22T14:43:33;2.58;;;1.88;;
39426;SDS011;25938;48.470;1.486;2023-06-22T14:45:59;2.40;;;1.60;;
39426;SDS011;25938;48.470;1.486;2023-06-22T14:48:25;3.53;;;2.05;;
39426;SDS011;25938;48.470;1.486;2023-06-22T14:50:51;2.15;;;1.60;;
39426;SDS011;25938;48.470;1.486;2023-06-22T14:53:19;3.28;;;1.95;;
39426;SDS011;25938;48.470;1.486;2023-06-22T14:55:45;1.73;;;1.48;;
39426;SDS011;25938;48.470;1.486;2023-06-22T14:58:11;3.28;;;1.73;;
39426;SDS011;25938;48.470;1.486;2023-06-22T15:00:37;3.47;;;1.83;;
39426;SDS011;25938;48.470;1.486;2023-06-22T15:03:03;2.00;;;1.48;;